sensor_id;sensor_type;location;lat;lon;timestamp;temperature;humidity
12811;DHT22;6470;47.654;7.896;2022-10-16T00:01:58;15.50;99.90
12811;DHT22;6470;47.654;7.896;2022-10-16T00:04:24;15.30;99.90
12811;DHT22;6470;47.654;7.896;2022-10-16T00:09:16;15.40;99.90
12811;DHT22;6470;47.654;7.896;2022-10-16T00:11:42;15.20;99.90
12811;DHT22;6470;47.654;7.896;2022-10-16T00:14:10;15.40;99.90
12811;DHT22;6470;47.654;7.896;2022-10-16T00:16:36;15.30;99.90
12811;DHT22;6470;47.654;7.896;2022-10-16T00:19:03;15.50;99.90
12811;DHT22;6470;47.654;7.896;2022-10-16T00:21:30;15.20;99.90
12811;DHT22;6470;47.654;7.896;2022-10-16T00:24:05;15.30;99.90
12811;DHT22;6470;47.654;7.896;2022-10-16T00:26:32;12.90;99.90
12811;DHT22;6470;47.654;7.896;2022-10-16T00:28:58;15.60;99.90
12811;DHT22;6470;47.654;7.896;2022-10-16T00:31:24;15.50;99.90
12811;DHT22;6470;47.654;7.896;2022-10-16T00:33:50;15.30;99.90
12811;DHT22;6470;47.654;7.896;2022-10-16T00:36:18;15.20;99.90
12811;DHT22;6470;47.654;7.896;2022-10-16T00:38:44;15.10;99.90
12811;DHT22;6470;47.654;7.896;2022-10-16T00:41:14;15.50;99.90
12811;DHT22;6470;47.654;7.896;2022-10-16T00:43:50;13.00;99.90
12811;DHT22;6470;47.654;7.896;2022-10-16T00:46:25;15.30;99.90
12811;DHT22;6470;47.654;7.896;2022-10-16T00:49:12;13.20;99.90
12811;DHT22;6470;47.654;7.896;2022-10-16T00:51:52;15.90;99.90
12811;DHT22;6470;47.654;7.896;2022-10-16T00:54:29;15.20;99.90
12811;DHT22;6470;47.654;7.896;2022-10-16T00:56:59;15.40;99.90
12811;DHT22;6470;47.654;7.896;2022-10-16T00:59:32;13.30;99.90
12811;DHT22;6470;47.654;7.896;2022-10-16T01:01:59;10.40;99.90
12811;DHT22;6470;47.654;7.896;2022-10-16T01:04:26;15.70;99.90
12811;DHT22;6470;47.654;7.896;2022-10-16T01:07:12;16.00;99.90
12811;DHT22;6470;47.654;7.896;2022-10-16T01:09:51;15.50;99.90
12811;DHT22;6470;47.654;7.896;2022-10-16T01:15:14;15.20;99.90
12811;DHT22;6470;47.654;7.896;2022-10-16T01:20:27;15.20;99.90
12811;DHT22;6470;47.654;7.896;2022-10-16T01:28:11;15.80;99.90
12811;DHT22;6470;47.654;7.896;2022-10-16T01:30:40;15.10;99.90
12811;DHT22;6470;47.654;7.896;2022-10-16T01:33:21;15.70;99.90
12811;DHT22;6470;47.654;7.896;2022-10-16T01:35:52;15.40;99.90
12811;DHT22;6470;47.654;7.896;2022-10-16T01:40:52;10.00;99.90
12811;DHT22;6470;47.654;7.896;2022-10-16T01:43:28;15.40;99.90
12811;DHT22;6470;47.654;7.896;2022-10-16T01:45:57;12.60;99.90
12811;DHT22;6470;47.654;7.896;2022-10-16T01:48:23;14.80;99.90
12811;DHT22;6470;47.654;7.896;2022-10-16T01:51:08;15.20;99.90
12811;DHT22;6470;47.654;7.896;2022-10-16T01:53:36;12.60;99.90
12811;DHT22;6470;47.654;7.896;2022-10-16T01:56:04;15.90;99.90
12811;DHT22;6470;47.654;7.896;2022-10-16T01:58:34;15.30;99.90
12811;DHT22;6470;47.654;7.896;2022-10-16T02:01:04;15.70;99.90
12811;DHT22;6470;47.654;7.896;2022-10-16T02:03:33;15.60;99.90
12811;DHT22;6470;47.654;7.896;2022-10-16T02:08:28;15.40;99.90
12811;DHT22;6470;47.654;7.896;2022-10-16T02:10:56;15.30;99.90
12811;DHT22;6470;47.654;7.896;2022-10-16T02:13:33;10.10;99.90
12811;DHT22;6470;47.654;7.896;2022-10-16T02:15:59;15.30;99.90
12811;DHT22;6470;47.654;7.896;2022-10-16T02:18:26;14.70;99.90
12811;DHT22;6470;47.654;7.896;2022-10-16T02:21:02;12.70;99.90
12811;DHT22;6470;47.654;7.896;2022-10-16T02:23:54;15.20;99.90
12811;DHT22;6470;47.654;7.896;2022-10-16T02:26:38;14.50;99.90
12811;DHT22;6470;47.654;7.896;2022-10-16T02:29:10;14.40;99.90
12811;DHT22;6470;47.654;7.896;2022-10-16T02:31:40;15.20;99.90
12811;DHT22;6470;47.654;7.896;2022-10-16T02:36:34;15.00;99.90
12811;DHT22;6470;47.654;7.896;2022-10-16T02:39:01;12.70;99.90
12811;DHT22;6470;47.654;7.896;2022-10-16T02:41:30;15.00;99.90
12811;DHT22;6470;47.654;7.896;2022-10-16T02:48:48;14.70;99.90
12811;DHT22;6470;47.654;7.896;2022-10-16T02:51:13;15.30;99.90
12811;DHT22;6470;47.654;7.896;2022-10-16T02:53:39;15.70;99.90
12811;DHT22;6470;47.654;7.896;2022-10-16T02:56:05;15.30;99.90
12811;DHT22;6470;47.654;7.896;2022-10-16T03:00:57;15.20;99.90
12811;DHT22;6470;47.654;7.896;2022-10-16T03:05:48;14.60;99.90
12811;DHT22;6470;47.654;7.896;2022-10-16T03:08:14;12.60;99.90
12811;DHT22;6470;47.654;7.896;2022-10-16T03:10:40;15.40;99.90
12811;DHT22;6470;47.654;7.896;2022-10-16T03:13:06;14.80;99.90
12811;DHT22;6470;47.654;7.896;2022-10-16T03:15:31;16.00;99.90
12811;DHT22;6470;47.654;7.896;2022-10-16T03:17:58;15.00;99.90
12811;DHT22;6470;47.654;7.896;2022-10-16T03:20:24;12.60;99.90
12811;DHT22;6470;47.654;7.896;2022-10-16T03:22:50;15.10;99.90
12811;DHT22;6470;47.654;7.896;2022-10-16T03:25:16;15.50;99.90
12811;DHT22;6470;47.654;7.896;2022-10-16T03:30:08;15.20;99.90
12811;DHT22;6470;47.654;7.896;2022-10-16T03:32:34;15.20;99.90
12811;DHT22;6470;47.654;7.896;2022-10-16T03:35:00;15.00;99.90
12811;DHT22;6470;47.654;7.896;2022-10-16T03:37:26;15.30;99.90
12811;DHT22;6470;47.654;7.896;2022-10-16T03:39:52;15.50;99.90
12811;DHT22;6470;47.654;7.896;2022-10-16T03:42:18;15.40;99.90
12811;DHT22;6470;47.654;7.896;2022-10-16T03:44:44;15.30;99.90
12811;DHT22;6470;47.654;7.896;2022-10-16T03:47:10;15.60;99.90
12811;DHT22;6470;47.654;7.896;2022-10-16T03:49:35;12.80;99.90
12811;DHT22;6470;47.654;7.896;2022-10-16T03:52:01;13.20;99.90
12811;DHT22;6470;47.654;7.896;2022-10-16T03:54:27;14.90;99.90
12811;DHT22;6470;47.654;7.896;2022-10-16T03:56:53;12.80;99.90
12811;DHT22;6470;47.654;7.896;2022-10-16T03:59:19;14.40;99.90
12811;DHT22;6470;47.654;7.896;2022-10-16T04:01:44;15.20;99.90
12811;DHT22;6470;47.654;7.896;2022-10-16T04:06:36;15.80;99.90
12811;DHT22;6470;47.654;7.896;2022-10-16T04:09:02;15.20;99.90
12811;DHT22;6470;47.654;7.896;2022-10-16T04:11:27;15.60;99.90
12811;DHT22;6470;47.654;7.896;2022-10-16T04:13:53;15.20;99.90
12811;DHT22;6470;47.654;7.896;2022-10-16T04:16:19;13.00;99.90
12811;DHT22;6470;47.654;7.896;2022-10-16T04:18:44;14.70;99.90
12811;DHT22;6470;47.654;7.896;2022-10-16T04:21:10;12.70;99.90
12811;DHT22;6470;47.654;7.896;2022-10-16T04:23:36;14.90;99.90
12811;DHT22;6470;47.654;7.896;2022-10-16T04:28:28;15.50;99.90
12811;DHT22;6470;47.654;7.896;2022-10-16T04:30:54;15.00;99.90
12811;DHT22;6470;47.654;7.896;2022-10-16T04:33:19;12.70;99.90
12811;DHT22;6470;47.654;7.896;2022-10-16T04:35:45;15.20;99.90
12811;DHT22;6470;47.654;7.896;2022-10-16T04:38:11;14.80;99.90
12811;DHT22;6470;47.654;7.896;2022-10-16T04:40:36;12.70;99.90
12811;DHT22;6470;47.654;7.896;2022-10-16T04:43:05;15.40;99.90
12811;DHT22;6470;47.654;7.896;2022-10-16T04:45:31;12.70;99.90
12811;DHT22;6470;47.654;7.896;2022-10-16T04:47:58;12.80;99.90
12811;DHT22;6470;47.654;7.896;2022-10-16T04:50:23;10.20;99.90
12811;DHT22;6470;47.654;7.896;2022-10-16T04:52:49;15.20;99.90
12811;DHT22;6470;47.654;7.896;2022-10-16T04:55:15;15.10;99.90
12811;DHT22;6470;47.654;7.896;2022-10-16T04:57:41;15.00;99.90
12811;DHT22;6470;47.654;7.896;2022-10-16T05:00:07;12.60;99.90
12811;DHT22;6470;47.654;7.896;2022-10-16T05:02:33;15.10;99.90
12811;DHT22;6470;47.654;7.896;2022-10-16T05:04:59;12.50;99.90
12811;DHT22;6470;47.654;7.896;2022-10-16T05:07:25;15.40;99.90
12811;DHT22;6470;47.654;7.896;2022-10-16T05:09:50;15.00;99.90
12811;DHT22;6470;47.654;7.896;2022-10-16T05:12:16;15.00;99.90
12811;DHT22;6470;47.654;7.896;2022-10-16T05:14:42;15.20;99.90
12811;DHT22;6470;47.654;7.896;2022-10-16T05:17:07;15.00;99.90
12811;DHT22;6470;47.654;7.896;2022-10-16T05:19:33;12.30;99.90
12811;DHT22;6470;47.654;7.896;2022-10-16T05:21:59;12.40;99.90
12811;DHT22;6470;47.654;7.896;2022-10-16T05:24:25;15.20;99.90
12811;DHT22;6470;47.654;7.896;2022-10-16T05:26:50;15.90;99.90
12811;DHT22;6470;47.654;7.896;2022-10-16T05:29:17;14.60;99.90
12811;DHT22;6470;47.654;7.896;2022-10-16T05:31:42;15.00;99.90
12811;DHT22;6470;47.654;7.896;2022-10-16T05:34:08;15.60;99.90
12811;DHT22;6470;47.654;7.896;2022-10-16T05:36:34;15.80;99.90
12811;DHT22;6470;47.654;7.896;2022-10-16T05:38:59;12.30;99.90
12811;DHT22;6470;47.654;7.896;2022-10-16T05:41:25;15.10;99.90
12811;DHT22;6470;47.654;7.896;2022-10-16T05:43:52;15.00;99.90
12811;DHT22;6470;47.654;7.896;2022-10-16T05:46:18;14.70;99.90
12811;DHT22;6470;47.654;7.896;2022-10-16T05:48:44;15.30;99.90
12811;DHT22;6470;47.654;7.896;2022-10-16T05:51:12;15.50;99.90
12811;DHT22;6470;47.654;7.896;2022-10-16T05:53:39;14.90;99.90
12811;DHT22;6470;47.654;7.896;2022-10-16T05:56:06;15.20;99.90
12811;DHT22;6470;47.654;7.896;2022-10-16T05:58:36;12.50;99.90
12811;DHT22;6470;47.654;7.896;2022-10-16T06:01:05;14.80;99.90
12811;DHT22;6470;47.654;7.896;2022-10-16T06:03:32;15.30;99.90
12811;DHT22;6470;47.654;7.896;2022-10-16T06:05:58;10.20;99.90
12811;DHT22;6470;47.654;7.896;2022-10-16T06:08:24;15.00;99.90
12811;DHT22;6470;47.654;7.896;2022-10-16T06:11:04;12.60;99.90
12811;DHT22;6470;47.654;7.896;2022-10-16T06:13:30;15.30;99.90
12811;DHT22;6470;47.654;7.896;2022-10-16T06:16:00;15.00;99.90
12811;DHT22;6470;47.654;7.896;2022-10-16T06:18:27;12.70;99.90
12811;DHT22;6470;47.654;7.896;2022-10-16T06:20:54;15.40;99.90
12811;DHT22;6470;47.654;7.896;2022-10-16T06:25:46;15.70;99.90
12811;DHT22;6470;47.654;7.896;2022-10-16T06:28:13;12.90;99.90
12811;DHT22;6470;47.654;7.896;2022-10-16T06:30:39;15.40;99.90
12811;DHT22;6470;47.654;7.896;2022-10-16T06:33:05;15.00;99.90
12811;DHT22;6470;47.654;7.896;2022-10-16T06:35:31;15.70;99.90
12811;DHT22;6470;47.654;7.896;2022-10-16T06:37:57;15.00;99.90
12811;DHT22;6470;47.654;7.896;2022-10-16T06:40:24;15.20;99.90
12811;DHT22;6470;47.654;7.896;2022-10-16T06:42:49;12.80;99.90
12811;DHT22;6470;47.654;7.896;2022-10-16T06:45:17;12.80;99.90
12811;DHT22;6470;47.654;7.896;2022-10-16T06:47:42;15.00;99.90
12811;DHT22;6470;47.654;7.896;2022-10-16T06:50:08;10.20;99.90
12811;DHT22;6470;47.654;7.896;2022-10-16T06:52:34;13.00;99.90
12811;DHT22;6470;47.654;7.896;2022-10-16T06:55:00;14.50;99.90
12811;DHT22;6470;47.654;7.896;2022-10-16T06:57:26;15.30;99.90
12811;DHT22;6470;47.654;7.896;2022-10-16T06:59:52;15.30;99.90
12811;DHT22;6470;47.654;7.896;2022-10-16T07:02:17;15.90;99.90
12811;DHT22;6470;47.654;7.896;2022-10-16T07:04:43;15.70;99.90
12811;DHT22;6470;47.654;7.896;2022-10-16T07:07:09;15.50;99.90
12811;DHT22;6470;47.654;7.896;2022-10-16T07:09:34;13.40;99.90
12811;DHT22;6470;47.654;7.896;2022-10-16T07:12:00;13.40;99.90
12811;DHT22;6470;47.654;7.896;2022-10-16T07:14:26;15.10;99.90
12811;DHT22;6470;47.654;7.896;2022-10-16T07:16:51;15.20;99.90
12811;DHT22;6470;47.654;7.896;2022-10-16T07:19:17;13.50;99.90
12811;DHT22;6470;47.654;7.896;2022-10-16T07:21:43;15.30;99.90
12811;DHT22;6470;47.654;7.896;2022-10-16T07:24:15;15.20;99.90
12811;DHT22;6470;47.654;7.896;2022-10-16T07:26:44;15.30;99.90
12811;DHT22;6470;47.654;7.896;2022-10-16T07:29:18;15.40;99.90
12811;DHT22;6470;47.654;7.896;2022-10-16T07:31:46;14.10;99.90
12811;DHT22;6470;47.654;7.896;2022-10-16T07:34:13;14.30;99.90
12811;DHT22;6470;47.654;7.896;2022-10-16T07:36:39;15.00;99.90
12811;DHT22;6470;47.654;7.896;2022-10-16T07:39:04;15.70;99.90
12811;DHT22;6470;47.654;7.896;2022-10-16T07:41:30;14.70;99.90
12811;DHT22;6470;47.654;7.896;2022-10-16T07:43:58;14.70;99.90
12811;DHT22;6470;47.654;7.896;2022-10-16T07:46:27;15.50;99.90
12811;DHT22;6470;47.654;7.896;2022-10-16T07:48:53;11.90;99.90
12811;DHT22;6470;47.654;7.896;2022-10-16T07:51:21;15.40;99.90
12811;DHT22;6470;47.654;7.896;2022-10-16T07:53:47;16.00;99.90
12811;DHT22;6470;47.654;7.896;2022-10-16T07:56:13;15.80;99.90
12811;DHT22;6470;47.654;7.896;2022-10-16T08:01:11;15.70;99.90
12811;DHT22;6470;47.654;7.896;2022-10-16T08:03:40;16.00;99.90
12811;DHT22;6470;47.654;7.896;2022-10-16T08:06:06;16.80;99.90
12811;DHT22;6470;47.654;7.896;2022-10-16T08:08:32;17.10;99.90
12811;DHT22;6470;47.654;7.896;2022-10-16T08:10:58;17.70;99.90
12811;DHT22;6470;47.654;7.896;2022-10-16T08:13:24;18.40;99.90
12811;DHT22;6470;47.654;7.896;2022-10-16T08:15:50;18.90;99.90
12811;DHT22;6470;47.654;7.896;2022-10-16T08:18:16;18.90;99.90
12811;DHT22;6470;47.654;7.896;2022-10-16T08:20:42;18.30;99.90
12811;DHT22;6470;47.654;7.896;2022-10-16T08:23:10;18.00;99.90
12811;DHT22;6470;47.654;7.896;2022-10-16T08:25:37;19.20;99.90
12811;DHT22;6470;47.654;7.896;2022-10-16T08:28:07;18.60;99.90
12811;DHT22;6470;47.654;7.896;2022-10-16T08:30:33;18.70;99.90
12811;DHT22;6470;47.654;7.896;2022-10-16T08:32:59;16.30;99.90
12811;DHT22;6470;47.654;7.896;2022-10-16T08:37:51;19.80;99.90
12811;DHT22;6470;47.654;7.896;2022-10-16T08:40:26;19.40;99.90
12811;DHT22;6470;47.654;7.896;2022-10-16T08:46:23;19.40;99.90
12811;DHT22;6470;47.654;7.896;2022-10-16T08:48:53;19.50;99.90
12811;DHT22;6470;47.654;7.896;2022-10-16T08:51:35;19.40;99.90
12811;DHT22;6470;47.654;7.896;2022-10-16T08:54:10;16.90;99.90
12811;DHT22;6470;47.654;7.896;2022-10-16T08:56:40;20.10;99.90
12811;DHT22;6470;47.654;7.896;2022-10-16T08:59:10;20.10;99.90
12811;DHT22;6470;47.654;7.896;2022-10-16T09:01:47;20.50;99.90
12811;DHT22;6470;47.654;7.896;2022-10-16T09:12:51;20.80;99.90
12811;DHT22;6470;47.654;7.896;2022-10-16T09:15:34;20.60;99.90
12811;DHT22;6470;47.654;7.896;2022-10-16T09:20:36;21.10;99.90
12811;DHT22;6470;47.654;7.896;2022-10-16T09:25:29;20.60;99.90
12811;DHT22;6470;47.654;7.896;2022-10-16T09:27:55;20.60;99.90
12811;DHT22;6470;47.654;7.896;2022-10-16T09:30:22;20.70;99.90
12811;DHT22;6470;47.654;7.896;2022-10-16T09:32:51;20.50;99.90
12811;DHT22;6470;47.654;7.896;2022-10-16T09:35:20;20.60;99.90
12811;DHT22;6470;47.654;7.896;2022-10-16T09:37:49;20.00;99.90
12811;DHT22;6470;47.654;7.896;2022-10-16T09:40:45;20.30;99.90
12811;DHT22;6470;47.654;7.896;2022-10-16T09:43:20;20.30;99.90
12811;DHT22;6470;47.654;7.896;2022-10-16T09:49:24;20.40;99.90
12811;DHT22;6470;47.654;7.896;2022-10-16T09:51:51;20.60;99.90
12811;DHT22;6470;47.654;7.896;2022-10-16T09:54:27;20.40;99.90
12811;DHT22;6470;47.654;7.896;2022-10-16T09:57:04;20.50;99.90
12811;DHT22;6470;47.654;7.896;2022-10-16T09:59:31;21.00;99.90
12811;DHT22;6470;47.654;7.896;2022-10-16T10:02:02;22.10;99.90
12811;DHT22;6470;47.654;7.896;2022-10-16T10:04:50;21.80;99.90
12811;DHT22;6470;47.654;7.896;2022-10-16T10:07:35;22.20;99.90
12811;DHT22;6470;47.654;7.896;2022-10-16T10:10:04;22.20;99.90
12811;DHT22;6470;47.654;7.896;2022-10-16T10:12:31;22.70;99.90
12811;DHT22;6470;47.654;7.896;2022-10-16T10:15:10;22.80;99.90
12811;DHT22;6470;47.654;7.896;2022-10-16T10:17:52;21.70;99.90
12811;DHT22;6470;47.654;7.896;2022-10-16T10:22:45;22.30;99.90
12811;DHT22;6470;47.654;7.896;2022-10-16T10:30:29;23.20;99.90
12811;DHT22;6470;47.654;7.896;2022-10-16T10:33:26;23.20;99.90
12811;DHT22;6470;47.654;7.896;2022-10-16T10:46:32;23.90;99.90
12811;DHT22;6470;47.654;7.896;2022-10-16T10:54:32;24.10;99.90
12811;DHT22;6470;47.654;7.896;2022-10-16T11:08:02;24.50;99.90
12811;DHT22;6470;47.654;7.896;2022-10-16T11:10:57;23.70;99.90
12811;DHT22;6470;47.654;7.896;2022-10-16T11:16:00;24.10;99.90
12811;DHT22;6470;47.654;7.896;2022-10-16T11:18:58;23.60;99.90
12811;DHT22;6470;47.654;7.896;2022-10-16T11:21:26;24.00;99.90
12811;DHT22;6470;47.654;7.896;2022-10-16T11:24:01;23.60;99.90
12811;DHT22;6470;47.654;7.896;2022-10-16T11:26:35;23.90;99.90
12811;DHT22;6470;47.654;7.896;2022-10-16T11:29:05;24.00;99.90
12811;DHT22;6470;47.654;7.896;2022-10-16T11:37:20;24.30;99.90
12811;DHT22;6470;47.654;7.896;2022-10-16T11:39:47;24.50;99.90
12811;DHT22;6470;47.654;7.896;2022-10-16T11:42:27;24.30;99.90
12811;DHT22;6470;47.654;7.896;2022-10-16T11:45:34;23.50;99.90
12811;DHT22;6470;47.654;7.896;2022-10-16T11:48:15;24.40;99.90
12811;DHT22;6470;47.654;7.896;2022-10-16T11:51:02;24.50;99.90
12811;DHT22;6470;47.654;7.896;2022-10-16T11:56:21;24.70;99.90
12811;DHT22;6470;47.654;7.896;2022-10-16T12:04:15;25.00;99.90
12811;DHT22;6470;47.654;7.896;2022-10-16T12:06:51;25.40;99.90
12811;DHT22;6470;47.654;7.896;2022-10-16T12:09:26;24.60;99.90
12811;DHT22;6470;47.654;7.896;2022-10-16T12:11:53;24.80;99.90
12811;DHT22;6470;47.654;7.896;2022-10-16T12:16:55;24.80;99.90
12811;DHT22;6470;47.654;7.896;2022-10-16T12:19:23;22.80;99.90
12811;DHT22;6470;47.654;7.896;2022-10-16T12:21:50;24.70;99.90
12811;DHT22;6470;47.654;7.896;2022-10-16T12:24:42;24.30;99.90
12811;DHT22;6470;47.654;7.896;2022-10-16T12:27:41;24.50;99.90
12811;DHT22;6470;47.654;7.896;2022-10-16T12:30:14;24.40;99.90
12811;DHT22;6470;47.654;7.896;2022-10-16T12:32:53;24.40;99.90
12811;DHT22;6470;47.654;7.896;2022-10-16T12:35:23;24.90;99.90
12811;DHT22;6470;47.654;7.896;2022-10-16T12:37:50;24.40;99.90
12811;DHT22;6470;47.654;7.896;2022-10-16T12:40:32;25.30;99.90
12811;DHT22;6470;47.654;7.896;2022-10-16T12:42:58;24.20;99.90
12811;DHT22;6470;47.654;7.896;2022-10-16T12:45:34;24.20;99.90
12811;DHT22;6470;47.654;7.896;2022-10-16T12:48:02;24.40;99.90
12811;DHT22;6470;47.654;7.896;2022-10-16T12:50:38;24.00;99.90
12811;DHT22;6470;47.654;7.896;2022-10-16T12:53:23;24.50;99.90
12811;DHT22;6470;47.654;7.896;2022-10-16T12:56:21;25.00;99.90
12811;DHT22;6470;47.654;7.896;2022-10-16T12:59:21;24.90;99.90
12811;DHT22;6470;47.654;7.896;2022-10-16T13:04:36;25.40;99.90
12811;DHT22;6470;47.654;7.896;2022-10-16T13:09:56;24.60;99.90
12811;DHT22;6470;47.654;7.896;2022-10-16T13:12:45;24.80;99.90
12811;DHT22;6470;47.654;7.896;2022-10-16T13:18:24;24.80;99.90
12811;DHT22;6470;47.654;7.896;2022-10-16T13:21:03;24.90;99.90
12811;DHT22;6470;47.654;7.896;2022-10-16T13:23:36;25.60;99.90
12811;DHT22;6470;47.654;7.896;2022-10-16T13:28:38;25.00;99.90
12811;DHT22;6470;47.654;7.896;2022-10-16T13:31:05;24.80;99.90
12811;DHT22;6470;47.654;7.896;2022-10-16T13:33:37;25.40;99.90
12811;DHT22;6470;47.654;7.896;2022-10-16T13:36:05;24.70;99.90
12811;DHT22;6470;47.654;7.896;2022-10-16T13:38:35;25.70;99.90
12811;DHT22;6470;47.654;7.896;2022-10-16T13:41:12;25.20;99.90
12811;DHT22;6470;47.654;7.896;2022-10-16T13:43:44;22.30;99.90
12811;DHT22;6470;47.654;7.896;2022-10-16T13:46:25;22.10;99.90
12811;DHT22;6470;47.654;7.896;2022-10-16T13:49:23;25.10;99.90
12811;DHT22;6470;47.654;7.896;2022-10-16T13:51:56;25.10;99.90
12811;DHT22;6470;47.654;7.896;2022-10-16T13:54:23;24.80;99.90
12811;DHT22;6470;47.654;7.896;2022-10-16T13:56:49;24.80;99.90
12811;DHT22;6470;47.654;7.896;2022-10-16T13:59:27;24.60;99.90
12811;DHT22;6470;47.654;7.896;2022-10-16T14:01:58;24.60;99.90
12811;DHT22;6470;47.654;7.896;2022-10-16T14:04:31;24.50;99.90
12811;DHT22;6470;47.654;7.896;2022-10-16T14:06:57;24.80;99.90
12811;DHT22;6470;47.654;7.896;2022-10-16T14:09:28;24.20;99.90
12811;DHT22;6470;47.654;7.896;2022-10-16T14:12:03;24.60;99.90
12811;DHT22;6470;47.654;7.896;2022-10-16T14:14:40;24.90;99.90
12811;DHT22;6470;47.654;7.896;2022-10-16T14:17:20;25.10;99.90
12811;DHT22;6470;47.654;7.896;2022-10-16T14:19:52;24.70;99.90
12811;DHT22;6470;47.654;7.896;2022-10-16T14:22:40;25.00;99.90
12811;DHT22;6470;47.654;7.896;2022-10-16T14:27:44;21.70;99.90
12811;DHT22;6470;47.654;7.896;2022-10-16T14:30:19;24.60;99.90
12811;DHT22;6470;47.654;7.896;2022-10-16T14:33:00;24.60;99.90
12811;DHT22;6470;47.654;7.896;2022-10-16T14:35:29;24.80;99.90
12811;DHT22;6470;47.654;7.896;2022-10-16T14:37:57;21.60;99.90
12811;DHT22;6470;47.654;7.896;2022-10-16T14:40:27;24.90;99.90
12811;DHT22;6470;47.654;7.896;2022-10-16T14:42:53;25.10;99.90
12811;DHT22;6470;47.654;7.896;2022-10-16T14:45:22;24.80;99.90
12811;DHT22;6470;47.654;7.896;2022-10-16T14:47:54;24.80;99.90
12811;DHT22;6470;47.654;7.896;2022-10-16T14:50:21;24.80;99.90
12811;DHT22;6470;47.654;7.896;2022-10-16T14:52:47;21.10;99.90
12811;DHT22;6470;47.654;7.896;2022-10-16T14:55:13;24.00;99.90
12811;DHT22;6470;47.654;7.896;2022-10-16T14:57:39;24.10;99.90
12811;DHT22;6470;47.654;7.896;2022-10-16T15:00:24;23.90;99.90
12811;DHT22;6470;47.654;7.896;2022-10-16T15:02:50;24.10;99.90
12811;DHT22;6470;47.654;7.896;2022-10-16T15:05:19;24.00;99.90
12811;DHT22;6470;47.654;7.896;2022-10-16T15:07:46;23.80;99.90
12811;DHT22;6470;47.654;7.896;2022-10-16T15:10:13;23.80;99.90
12811;DHT22;6470;47.654;7.896;2022-10-16T15:12:39;23.80;99.90
12811;DHT22;6470;47.654;7.896;2022-10-16T15:17:50;24.40;99.90
12811;DHT22;6470;47.654;7.896;2022-10-16T15:20:21;23.60;99.90
12811;DHT22;6470;47.654;7.896;2022-10-16T15:22:47;21.20;99.90
12811;DHT22;6470;47.654;7.896;2022-10-16T15:25:27;23.90;99.90
12811;DHT22;6470;47.654;7.896;2022-10-16T15:27:54;24.00;99.90
12811;DHT22;6470;47.654;7.896;2022-10-16T15:30:20;23.80;99.90
12811;DHT22;6470;47.654;7.896;2022-10-16T15:32:45;23.10;99.90
12811;DHT22;6470;47.654;7.896;2022-10-16T15:35:11;23.50;99.90
12811;DHT22;6470;47.654;7.896;2022-10-16T15:37:37;23.50;99.90
12811;DHT22;6470;47.654;7.896;2022-10-16T15:40:03;23.90;99.90
12811;DHT22;6470;47.654;7.896;2022-10-16T15:42:28;23.50;99.90
12811;DHT22;6470;47.654;7.896;2022-10-16T15:44:54;23.40;99.90
12811;DHT22;6470;47.654;7.896;2022-10-16T15:49:46;23.20;99.90
12811;DHT22;6470;47.654;7.896;2022-10-16T15:52:11;23.00;99.90
12811;DHT22;6470;47.654;7.896;2022-10-16T15:57:03;23.50;99.90
12811;DHT22;6470;47.654;7.896;2022-10-16T15:59:29;22.60;99.90
12811;DHT22;6470;47.654;7.896;2022-10-16T16:04:21;21.70;99.90
12811;DHT22;6470;47.654;7.896;2022-10-16T16:06:47;21.90;99.90
12811;DHT22;6470;47.654;7.896;2022-10-16T16:09:13;22.30;99.90
12811;DHT22;6470;47.654;7.896;2022-10-16T16:11:40;21.30;99.90
12811;DHT22;6470;47.654;7.896;2022-10-16T16:14:06;21.80;99.90
12811;DHT22;6470;47.654;7.896;2022-10-16T16:19:04;21.70;99.90
12811;DHT22;6470;47.654;7.896;2022-10-16T16:21:32;21.30;99.90
12811;DHT22;6470;47.654;7.896;2022-10-16T16:23:58;20.30;99.90
12811;DHT22;6470;47.654;7.896;2022-10-16T16:26:28;20.60;99.90
12811;DHT22;6470;47.654;7.896;2022-10-16T16:29:01;20.60;99.90
12811;DHT22;6470;47.654;7.896;2022-10-16T16:31:29;19.60;99.90
12811;DHT22;6470;47.654;7.896;2022-10-16T16:33:56;20.60;99.90
12811;DHT22;6470;47.654;7.896;2022-10-16T16:36:23;16.90;99.90
12811;DHT22;6470;47.654;7.896;2022-10-16T16:41:21;20.00;99.90
12811;DHT22;6470;47.654;7.896;2022-10-16T16:43:48;18.70;99.90
12811;DHT22;6470;47.654;7.896;2022-10-16T16:46:14;19.40;99.90
12811;DHT22;6470;47.654;7.896;2022-10-16T16:48:41;18.90;99.90
12811;DHT22;6470;47.654;7.896;2022-10-16T16:51:12;16.60;99.90
12811;DHT22;6470;47.654;7.896;2022-10-16T16:53:48;15.40;99.90
12811;DHT22;6470;47.654;7.896;2022-10-16T16:56:15;19.10;99.90
12811;DHT22;6470;47.654;7.896;2022-10-16T16:58:41;18.30;99.90
12811;DHT22;6470;47.654;7.896;2022-10-16T17:01:09;18.20;99.90
12811;DHT22;6470;47.654;7.896;2022-10-16T17:03:36;18.10;99.90
12811;DHT22;6470;47.654;7.896;2022-10-16T17:06:09;17.60;99.90
12811;DHT22;6470;47.654;7.896;2022-10-16T17:08:35;18.20;99.90
12811;DHT22;6470;47.654;7.896;2022-10-16T17:11:02;18.00;99.90
12811;DHT22;6470;47.654;7.896;2022-10-16T17:13:33;17.60;99.90
12811;DHT22;6470;47.654;7.896;2022-10-16T17:16:04;17.70;99.90
12811;DHT22;6470;47.654;7.896;2022-10-16T17:18:31;17.80;99.90
12811;DHT22;6470;47.654;7.896;2022-10-16T17:21:01;17.60;99.90
12811;DHT22;6470;47.654;7.896;2022-10-16T17:23:27;16.80;99.90
12811;DHT22;6470;47.654;7.896;2022-10-16T17:25:53;17.40;99.90
12811;DHT22;6470;47.654;7.896;2022-10-16T17:28:19;16.80;99.90
12811;DHT22;6470;47.654;7.896;2022-10-16T17:30:44;14.20;99.90
12811;DHT22;6470;47.654;7.896;2022-10-16T17:33:12;17.10;99.90
12811;DHT22;6470;47.654;7.896;2022-10-16T17:35:48;17.50;99.90
12811;DHT22;6470;47.654;7.896;2022-10-16T17:38:14;17.10;99.90
12811;DHT22;6470;47.654;7.896;2022-10-16T17:40:42;17.70;99.90
12811;DHT22;6470;47.654;7.896;2022-10-16T17:43:08;17.00;99.90
12811;DHT22;6470;47.654;7.896;2022-10-16T17:45:36;17.20;99.90
12811;DHT22;6470;47.654;7.896;2022-10-16T17:48:03;17.30;99.90
12811;DHT22;6470;47.654;7.896;2022-10-16T17:50:29;16.90;99.90
12811;DHT22;6470;47.654;7.896;2022-10-16T17:52:55;16.90;99.90
12811;DHT22;6470;47.654;7.896;2022-10-16T17:55:22;16.70;99.90
12811;DHT22;6470;47.654;7.896;2022-10-16T17:57:48;16.50;99.90
12811;DHT22;6470;47.654;7.896;2022-10-16T18:00:14;16.50;99.90
12811;DHT22;6470;47.654;7.896;2022-10-16T18:02:39;16.80;99.90
12811;DHT22;6470;47.654;7.896;2022-10-16T18:05:08;16.60;99.90
12811;DHT22;6470;47.654;7.896;2022-10-16T18:07:34;16.80;99.90
12811;DHT22;6470;47.654;7.896;2022-10-16T18:09:59;16.40;99.90
12811;DHT22;6470;47.654;7.896;2022-10-16T18:12:28;16.40;99.90
12811;DHT22;6470;47.654;7.896;2022-10-16T18:14:55;16.90;99.90
12811;DHT22;6470;47.654;7.896;2022-10-16T18:19:49;16.00;99.90
12811;DHT22;6470;47.654;7.896;2022-10-16T18:22:16;16.30;99.90
12811;DHT22;6470;47.654;7.896;2022-10-16T18:24:46;16.00;99.90
12811;DHT22;6470;47.654;7.896;2022-10-16T18:27:14;16.10;99.90
12811;DHT22;6470;47.654;7.896;2022-10-16T18:29:43;13.30;99.90
12811;DHT22;6470;47.654;7.896;2022-10-16T18:32:09;15.70;99.90